createdAt,value
2023-05-09T00:01:50.156Z,13.63
2023-05-09T00:06:53.709Z,13.68
2023-05-09T00:11:56.505Z,13.63
2023-05-09T00:16:59.357Z,13.60
2023-05-09T00:22:01.622Z,13.62
2023-05-09T00:27:03.310Z,13.59
2023-05-09T00:32:05.329Z,13.63
2023-05-09T00:37:07.157Z,13.67
2023-05-09T00:42:08.850Z,13.66
2023-05-09T00:47:10.661Z,13.64
2023-05-09T00:52:12.363Z,13.63
2023-05-09T00:57:14.494Z,13.65
2023-05-09T01:02:18.078Z,13.69
2023-05-09T01:07:52.088Z,13.64
2023-05-09T01:13:15.831Z,13.66
2023-05-09T01:18:36.541Z,13.60
2023-05-09T01:23:44.322Z,13.62
2023-05-09T01:29:15.480Z,13.62
2023-05-09T01:34:18.505Z,13.62
2023-05-09T01:39:22.376Z,13.57
2023-05-09T01:44:25.570Z,13.53
2023-05-09T01:49:31.583Z,13.57
2023-05-09T01:54:34.839Z,13.55
2023-05-09T01:59:41.906Z,13.56
2023-05-09T02:04:44.920Z,13.55
2023-05-09T02:09:49.700Z,13.59
2023-05-09T02:14:53.304Z,13.58
2023-05-09T02:19:54.985Z,13.58
2023-05-09T02:24:57.110Z,13.55
2023-05-09T02:30:02.732Z,13.47
2023-05-09T02:35:07.685Z,13.47
2023-05-09T02:40:10.583Z,13.44
2023-05-09T02:45:14.008Z,13.47
2023-05-09T02:50:15.963Z,13.44
2023-05-09T02:55:18.131Z,13.40
2023-05-09T03:00:22.259Z,13.45
2023-05-09T03:05:24.106Z,13.41
2023-05-09T03:10:25.898Z,13.44
2023-05-09T03:15:27.654Z,13.47
2023-05-09T03:20:29.450Z,13.45
2023-05-09T03:25:31.486Z,13.45
2023-05-09T03:30:36.719Z,13.47
2023-05-09T03:35:39.900Z,13.48
2023-05-09T03:40:42.261Z,13.43
2023-05-09T03:45:46.071Z,13.38
2023-05-09T03:50:49.550Z,13.40
2023-05-09T03:55:52.385Z,13.44
2023-05-09T04:00:56.222Z,13.47
2023-05-09T04:06:00.007Z,13.40
2023-05-09T04:11:10.068Z,13.39
2023-05-09T04:16:14.029Z,13.39
2023-05-09T04:21:16.414Z,13.36
2023-05-09T04:26:22.813Z,13.36
2023-05-09T04:31:27.309Z,13.41
2023-05-09T04:36:29.275Z,13.33
2023-05-09T04:41:33.919Z,13.34
2023-05-09T04:46:35.961Z,13.32
2023-05-09T04:51:38.003Z,13.31
2023-05-09T04:56:39.777Z,13.33
2023-05-09T05:01:41.565Z,13.33
2023-05-09T05:06:43.501Z,13.29
2023-05-09T05:11:57.962Z,13.34
2023-05-09T05:17:01.916Z,13.36
2023-05-09T05:22:05.620Z,13.40
2023-05-09T05:27:08.514Z,13.23
2023-05-09T05:32:10.764Z,13.18
2023-05-09T05:37:12.816Z,13.14
2023-05-09T05:42:16.225Z,13.18
2023-05-09T05:47:18.677Z,13.11
2023-05-09T05:52:21.236Z,13.06
2023-05-09T05:57:23.085Z,13.13
2023-05-09T06:02:25.354Z,13.15
2023-05-09T06:07:27.643Z,13.20
2023-05-09T06:12:29.356Z,13.15
2023-05-09T06:17:31.330Z,13.09
2023-05-09T06:22:33.131Z,13.13
2023-05-09T06:27:37.991Z,13.21
2023-05-09T06:32:39.734Z,13.19
2023-05-09T06:37:45.942Z,13.13
2023-05-09T06:42:48.822Z,13.13
2023-05-09T06:47:54.208Z,13.03
2023-05-09T06:52:56.549Z,13.09
2023-05-09T06:57:58.356Z,13.10
2023-05-09T07:03:00.069Z,12.99
2023-05-09T07:08:01.892Z,13.00
2023-05-09T07:13:04.712Z,13.01
2023-05-09T07:18:06.464Z,13.00
2023-05-09T07:23:08.230Z,13.03
2023-05-09T07:28:12.367Z,13.02
2023-05-09T07:33:14.042Z,13.04
2023-05-09T07:38:15.746Z,13.05
2023-05-09T07:43:17.439Z,12.96
2023-05-09T07:48:19.376Z,12.80
2023-05-09T07:53:21.570Z,12.82
2023-05-09T07:58:23.236Z,12.87
2023-05-09T08:03:25.135Z,12.79
2023-05-09T08:08:27.232Z,12.73
2023-05-09T08:13:28.992Z,12.76
2023-05-09T08:18:31.132Z,12.94
2023-05-09T08:23:32.946Z,12.97
2023-05-09T08:28:34.642Z,12.86
2023-05-09T08:33:38.834Z,12.81
2023-05-09T08:38:42.142Z,12.89
2023-05-09T08:43:44.400Z,12.84
2023-05-09T08:48:46.163Z,12.97
2023-05-09T08:53:48.491Z,13.08
2023-05-09T08:58:50.353Z,13.13
2023-05-09T09:03:54.359Z,13.11
2023-05-09T09:08:57.580Z,13.14
2023-05-09T09:14:06.203Z,13.16
2023-05-09T09:19:13.096Z,13.22
2023-05-09T09:24:15.019Z,13.20
2023-05-09T09:29:18.674Z,13.26
2023-05-09T09:34:22.886Z,13.26
2023-05-09T09:39:24.614Z,13.23
2023-05-09T09:44:27.060Z,13.24
2023-05-09T09:49:28.803Z,13.21
2023-05-09T09:54:32.191Z,13.22
2023-05-09T09:59:33.838Z,13.26
2023-05-09T10:04:41.658Z,13.34
2023-05-09T10:09:44.030Z,13.39
2023-05-09T10:14:47.274Z,13.31
2023-05-09T10:19:52.784Z,13.27
2023-05-09T10:25:08.292Z,13.25
2023-05-09T10:30:15.549Z,13.21
2023-05-09T10:35:18.542Z,13.23
2023-05-09T10:40:21.240Z,13.22
2023-05-09T10:45:23.460Z,13.30
2023-05-09T10:50:26.211Z,13.27
2023-05-09T10:55:55.691Z,13.32
2023-05-09T11:01:03.783Z,13.27
2023-05-09T11:06:08.767Z,13.38
2023-05-09T11:11:25.686Z,13.29
2023-05-09T11:16:27.442Z,13.33
2023-05-09T11:21:29.100Z,13.45
2023-05-09T11:26:31.578Z,13.42
2023-05-09T11:31:33.497Z,13.48
2023-05-09T11:36:36.054Z,13.45
2023-05-09T11:41:43.605Z,13.44
2023-05-09T11:46:47.041Z,13.59
2023-05-09T11:51:48.746Z,13.64
2023-05-09T11:56:52.893Z,13.69
2023-05-09T12:01:54.725Z,13.74
2023-05-09T12:06:59.032Z,13.67
2023-05-09T12:12:01.510Z,13.60
2023-05-09T12:17:03.678Z,13.62
2023-05-09T12:22:10.051Z,13.56
2023-05-09T12:27:11.979Z,13.63
2023-05-09T12:32:16.894Z,13.66
2023-05-09T12:37:19.352Z,13.67
2023-05-09T12:42:21.742Z,13.50
2023-05-09T12:47:28.114Z,13.56
2023-05-09T12:52:46.994Z,13.62
2023-05-09T12:58:01.735Z,13.64
2023-05-09T13:03:04.346Z,13.56
2023-05-09T13:08:06.063Z,13.55
2023-05-09T13:13:07.915Z,13.51
2023-05-09T13:18:10.862Z,13.54
2023-05-09T13:23:12.635Z,13.52
2023-05-09T13:28:15.169Z,13.52
2023-05-09T13:33:25.401Z,13.53
2023-05-09T13:38:31.016Z,13.53
2023-05-09T13:43:32.937Z,13.38
2023-05-09T13:48:34.597Z,13.50
2023-05-09T13:53:38.671Z,13.60
2023-05-09T13:58:40.690Z,13.67
2023-05-09T14:03:42.460Z,13.61
2023-05-09T14:08:44.222Z,13.57
2023-05-09T14:13:45.883Z,13.58
2023-05-09T14:18:48.278Z,13.65
2023-05-09T14:23:54.181Z,13.50
2023-05-09T14:28:55.867Z,13.57
2023-05-09T14:34:00.177Z,13.58
2023-05-09T14:39:02.393Z,13.49
2023-05-09T14:44:04.188Z,13.53
2023-05-09T14:49:06.756Z,13.55
2023-05-09T14:54:09.389Z,13.52
2023-05-09T14:59:11.725Z,13.48
2023-05-09T15:04:13.572Z,13.49
2023-05-09T15:09:15.596Z,13.50
2023-05-09T15:14:17.238Z,13.49
2023-05-09T15:19:19.309Z,13.24
2023-05-09T15:24:21.348Z,13.00
2023-05-09T15:29:23.386Z,12.94
2023-05-09T15:34:25.305Z,12.92
2023-05-09T15:39:27.241Z,12.94
2023-05-09T15:44:31.615Z,13.00
2023-05-09T15:49:34.166Z,12.85
2023-05-09T15:54:36.971Z,12.82
2023-05-09T15:59:40.127Z,12.71
2023-05-09T16:04:42.557Z,12.74
2023-05-09T16:09:44.779Z,12.66
2023-05-09T16:14:46.469Z,12.64
2023-05-09T16:19:48.188Z,12.54
2023-05-09T16:24:49.863Z,12.55
2023-05-09T16:29:59.340Z,12.55
2023-05-09T16:35:01.056Z,12.52
2023-05-09T16:40:04.470Z,12.56
2023-05-09T16:45:07.213Z,12.54
2023-05-09T16:50:10.509Z,12.43
2023-05-09T16:55:12.589Z,12.33
2023-05-09T17:00:16.461Z,12.43
2023-05-09T17:05:18.725Z,12.47
2023-05-09T17:10:22.836Z,12.50
2023-05-09T17:15:28.566Z,12.47
2023-05-09T17:20:30.941Z,12.50
2023-05-09T17:25:33.483Z,12.47
2023-05-09T17:30:36.584Z,12.35
2023-05-09T17:35:38.267Z,12.37
2023-05-09T17:40:40.171Z,12.35
2023-05-09T17:45:42.668Z,12.16
2023-05-09T17:50:46.237Z,12.26
2023-05-09T17:55:47.937Z,12.10
2023-05-09T18:00:53.973Z,12.18
2023-05-09T18:05:55.978Z,12.10
2023-05-09T18:10:57.884Z,12.13
2023-05-09T18:16:02.892Z,12.24
2023-05-09T18:21:05.472Z,12.12
2023-05-09T18:26:08.596Z,12.13
2023-05-09T18:31:12.036Z,12.10
2023-05-09T18:36:16.915Z,11.84
2023-05-09T18:41:18.541Z,11.78
2023-05-09T18:46:21.606Z,11.73
2023-05-09T18:51:24.183Z,11.66
2023-05-09T18:56:25.871Z,11.65
2023-05-09T19:01:27.550Z,11.66
2023-05-09T19:06:29.260Z,11.55
2023-05-09T19:11:30.916Z,11.57
2023-05-09T19:16:32.723Z,11.58
2023-05-09T19:21:35.650Z,11.57
2023-05-09T19:26:38.149Z,11.61
2023-05-09T19:31:39.860Z,11.70
2023-05-09T19:36:41.481Z,11.73
2023-05-09T19:41:43.201Z,11.74
2023-05-09T19:46:45.031Z,11.75
2023-05-09T19:51:46.855Z,11.73
2023-05-09T19:56:48.506Z,11.72
2023-05-09T20:01:50.527Z,11.71
2023-05-09T20:06:53.277Z,11.64
2023-05-09T20:11:55.170Z,11.69
2023-05-09T20:16:57.223Z,11.67
2023-05-09T20:22:00.240Z,11.63
2023-05-09T20:27:03.192Z,11.60
2023-05-09T20:32:05.423Z,11.60
2023-05-09T20:37:07.795Z,11.71
2023-05-09T20:42:09.685Z,11.72
2023-05-09T20:47:11.446Z,11.77
2023-05-09T20:52:13.276Z,11.75
2023-05-09T20:57:15.143Z,11.73
2023-05-09T21:02:17.001Z,11.72
2023-05-09T21:07:19.515Z,11.73
2023-05-09T21:12:24.227Z,11.77
2023-05-09T21:17:26.228Z,11.78
2023-05-09T21:22:29.070Z,11.84
2023-05-09T21:27:31.504Z,11.83
2023-05-09T21:32:33.354Z,11.87
2023-05-09T21:37:36.422Z,11.87
2023-05-09T21:42:40.734Z,11.86
2023-05-09T21:47:42.841Z,11.87
2023-05-09T21:52:44.811Z,11.89
2023-05-09T21:57:46.755Z,11.81
2023-05-09T22:02:48.727Z,11.80
2023-05-09T22:07:54.100Z,11.83
2023-05-09T22:12:56.092Z,11.91
2023-05-09T22:17:57.898Z,11.92
2023-05-09T22:22:59.637Z,11.96
2023-05-09T22:28:01.462Z,11.96
2023-05-09T22:33:03.195Z,11.98
2023-05-09T22:38:04.894Z,11.98
2023-05-09T22:43:06.538Z,11.95
2023-05-09T22:48:08.423Z,11.91
2023-05-09T22:53:10.685Z,11.93
2023-05-09T22:58:12.373Z,11.94
2023-05-09T23:03:14.156Z,11.94
2023-05-09T23:08:16.158Z,11.93
2023-05-09T23:13:17.903Z,11.90
2023-05-09T23:18:21.161Z,11.92
2023-05-09T23:23:22.978Z,11.88
2023-05-09T23:28:25.406Z,11.84
2023-05-09T23:33:27.580Z,11.79
2023-05-09T23:38:29.237Z,11.71
2023-05-09T23:43:30.871Z,11.75
2023-05-09T23:48:32.654Z,11.76
2023-05-09T23:53:35.308Z,11.66
2023-05-09T23:58:37.037Z,11.64
